sensor_id;sensor_type;location;lat;lon;timestamp;P1;durP1;ratioP1;P2;durP2;ratioP2
46551;SDS011;32278;51.810;4.712;2023-05-10T00:01:32;72.50;;;25.98;;
46551;SDS011;32278;51.810;4.712;2023-05-10T00:03:58;65.75;;;25.75;;
46551;SDS011;32278;51.810;4.712;2023-05-10T00:06:24;53.85;;;23.05;;
46551;SDS011;32278;51.810;4.712;2023-05-10T00:08:50;66.63;;;24.05;;
46551;SDS011;32278;51.810;4.712;2023-05-10T00:11:16;55.60;;;22.65;;
46551;SDS011;32278;51.810;4.712;2023-05-10T00:13:42;55.15;;;21.77;;
46551;SDS011;32278;51.810;4.712;2023-05-10T00:16:08;60.88;;;23.40;;
46551;SDS011;32278;51.810;4.712;2023-05-10T00:18:34;49.55;;;21.58;;
46551;SDS011;32278;51.810;4.712;2023-05-10T00:21:00;65.00;;;23.65;;
46551;SDS011;32278;51.810;4.712;2023-05-10T00:23:26;60.80;;;23.67;;
46551;SDS011;32278;51.810;4.712;2023-05-10T00:25:52;70.35;;;24.88;;
46551;SDS011;32278;51.810;4.712;2023-05-10T00:28:18;66.35;;;24.42;;
46551;SDS011;32278;51.810;4.712;2023-05-10T00:30:44;67.85;;;23.58;;
46551;SDS011;32278;51.810;4.712;2023-05-10T00:33:10;57.00;;;23.40;;
46551;SDS011;32278;51.810;4.712;2023-05-10T00:35:36;80.15;;;26.58;;
46551;SDS011;32278;51.810;4.712;2023-05-10T00:38:04;54.55;;;21.58;;
46551;SDS011;32278;51.810;4.712;2023-05-10T00:40:30;52.25;;;20.90;;
46551;SDS011;32278;51.810;4.712;2023-05-10T00:42:56;46.03;;;20.85;;
46551;SDS011;32278;51.810;4.712;2023-05-10T00:45:23;54.53;;;21.70;;
46551;SDS011;32278;51.810;4.712;2023-05-10T00:47:49;58.03;;;20.40;;
46551;SDS011;32278;51.810;4.712;2023-05-10T00:50:17;53.42;;;22.30;;
46551;SDS011;32278;51.810;4.712;2023-05-10T00:52:43;53.47;;;21.70;;
46551;SDS011;32278;51.810;4.712;2023-05-10T00:55:09;56.08;;;23.20;;
46551;SDS011;32278;51.810;4.712;2023-05-10T00:57:37;47.13;;;20.52;;
46551;SDS011;32278;51.810;4.712;2023-05-10T01:00:03;55.08;;;21.42;;
46551;SDS011;32278;51.810;4.712;2023-05-10T01:02:30;61.90;;;21.70;;
46551;SDS011;32278;51.810;4.712;2023-05-10T01:04:56;48.53;;;21.35;;
46551;SDS011;32278;51.810;4.712;2023-05-10T01:07:21;44.13;;;20.23;;
46551;SDS011;32278;51.810;4.712;2023-05-10T01:09:48;47.63;;;21.70;;
46551;SDS011;32278;51.810;4.712;2023-05-10T01:12:14;55.63;;;22.40;;
46551;SDS011;32278;51.810;4.712;2023-05-10T01:14:40;48.00;;;20.83;;
46551;SDS011;32278;51.810;4.712;2023-05-10T01:17:06;48.08;;;22.55;;
46551;SDS011;32278;51.810;4.712;2023-05-10T01:19:34;52.53;;;22.98;;
46551;SDS011;32278;51.810;4.712;2023-05-10T01:22:04;61.28;;;21.95;;
46551;SDS011;32278;51.810;4.712;2023-05-10T01:32:51;76.40;;;24.75;;
46551;SDS011;32278;51.810;4.712;2023-05-10T01:37:46;50.85;;;22.98;;
46551;SDS011;32278;51.810;4.712;2023-05-10T01:40:19;64.65;;;24.27;;
46551;SDS011;32278;51.810;4.712;2023-05-10T01:42:47;65.03;;;24.67;;
46551;SDS011;32278;51.810;4.712;2023-05-10T01:45:28;75.85;;;24.17;;
46551;SDS011;32278;51.810;4.712;2023-05-10T01:48:14;64.07;;;24.75;;
46551;SDS011;32278;51.810;4.712;2023-05-10T01:50:42;70.97;;;26.00;;
46551;SDS011;32278;51.810;4.712;2023-05-10T01:53:09;84.78;;;26.45;;
46551;SDS011;32278;51.810;4.712;2023-05-10T01:55:39;64.32;;;23.90;;
46551;SDS011;32278;51.810;4.712;2023-05-10T01:58:06;75.45;;;25.67;;
46551;SDS011;32278;51.810;4.712;2023-05-10T02:00:33;70.63;;;26.63;;
46551;SDS011;32278;51.810;4.712;2023-05-10T02:03:03;70.10;;;25.30;;
46551;SDS011;32278;51.810;4.712;2023-05-10T02:05:31;76.78;;;26.80;;
46551;SDS011;32278;51.810;4.712;2023-05-10T02:07:57;69.13;;;25.88;;
46551;SDS011;32278;51.810;4.712;2023-05-10T02:10:25;68.88;;;26.38;;
46551;SDS011;32278;51.810;4.712;2023-05-10T02:12:52;68.68;;;24.90;;
46551;SDS011;32278;51.810;4.712;2023-05-10T02:15:21;74.85;;;25.73;;
46551;SDS011;32278;51.810;4.712;2023-05-10T02:17:47;77.82;;;25.77;;
46551;SDS011;32278;51.810;4.712;2023-05-10T02:20:14;69.70;;;25.70;;
46551;SDS011;32278;51.810;4.712;2023-05-10T02:22:41;70.43;;;26.25;;
46551;SDS011;32278;51.810;4.712;2023-05-10T02:25:08;69.35;;;25.35;;
46551;SDS011;32278;51.810;4.712;2023-05-10T02:27:35;62.17;;;23.83;;
46551;SDS011;32278;51.810;4.712;2023-05-10T02:30:02;68.60;;;25.38;;
46551;SDS011;32278;51.810;4.712;2023-05-10T02:32:30;68.47;;;26.02;;
46551;SDS011;32278;51.810;4.712;2023-05-10T02:34:56;60.55;;;24.45;;
46551;SDS011;32278;51.810;4.712;2023-05-10T02:37:22;56.65;;;22.55;;
46551;SDS011;32278;51.810;4.712;2023-05-10T02:39:50;59.88;;;23.00;;
46551;SDS011;32278;51.810;4.712;2023-05-10T02:42:17;69.68;;;25.10;;
46551;SDS011;32278;51.810;4.712;2023-05-10T02:44:45;67.53;;;25.30;;
46551;SDS011;32278;51.810;4.712;2023-05-10T02:47:13;65.47;;;24.42;;
46551;SDS011;32278;51.810;4.712;2023-05-10T02:49:39;69.45;;;25.20;;
46551;SDS011;32278;51.810;4.712;2023-05-10T02:52:05;59.15;;;24.73;;
46551;SDS011;32278;51.810;4.712;2023-05-10T02:54:34;55.20;;;23.73;;
46551;SDS011;32278;51.810;4.712;2023-05-10T02:57:04;67.53;;;26.52;;
46551;SDS011;32278;51.810;4.712;2023-05-10T02:59:30;73.78;;;25.75;;
46551;SDS011;32278;51.810;4.712;2023-05-10T03:01:57;66.05;;;24.63;;
46551;SDS011;32278;51.810;4.712;2023-05-10T03:04:24;78.85;;;27.08;;
46551;SDS011;32278;51.810;4.712;2023-05-10T03:06:53;65.22;;;24.83;;
46551;SDS011;32278;51.810;4.712;2023-05-10T03:09:19;69.53;;;26.33;;
46551;SDS011;32278;51.810;4.712;2023-05-10T03:11:52;75.05;;;26.52;;
46551;SDS011;32278;51.810;4.712;2023-05-10T03:14:22;81.28;;;28.45;;
46551;SDS011;32278;51.810;4.712;2023-05-10T03:17:03;82.75;;;28.45;;
46551;SDS011;32278;51.810;4.712;2023-05-10T03:19:32;70.53;;;26.30;;
46551;SDS011;32278;51.810;4.712;2023-05-10T03:22:03;80.03;;;27.80;;
46551;SDS011;32278;51.810;4.712;2023-05-10T03:24:31;80.53;;;28.10;;
46551;SDS011;32278;51.810;4.712;2023-05-10T03:26:59;59.17;;;26.17;;
46551;SDS011;32278;51.810;4.712;2023-05-10T03:29:27;88.97;;;29.10;;
46551;SDS011;32278;51.810;4.712;2023-05-10T03:31:54;74.50;;;28.67;;
46551;SDS011;32278;51.810;4.712;2023-05-10T03:34:23;75.68;;;27.15;;
46551;SDS011;32278;51.810;4.712;2023-05-10T03:36:49;77.38;;;28.35;;
46551;SDS011;32278;51.810;4.712;2023-05-10T03:39:15;83.10;;;28.42;;
46551;SDS011;32278;51.810;4.712;2023-05-10T03:41:41;88.72;;;28.55;;
46551;SDS011;32278;51.810;4.712;2023-05-10T03:44:07;86.45;;;29.23;;
46551;SDS011;32278;51.810;4.712;2023-05-10T03:46:33;86.25;;;27.70;;
46551;SDS011;32278;51.810;4.712;2023-05-10T03:48:59;87.85;;;31.48;;
46551;SDS011;32278;51.810;4.712;2023-05-10T03:51:25;91.70;;;31.00;;
46551;SDS011;32278;51.810;4.712;2023-05-10T03:53:53;93.18;;;33.13;;
46551;SDS011;32278;51.810;4.712;2023-05-10T03:56:19;91.75;;;33.00;;
46551;SDS011;32278;51.810;4.712;2023-05-10T03:58:45;88.05;;;31.67;;
46551;SDS011;32278;51.810;4.712;2023-05-10T04:01:11;92.18;;;32.17;;
46551;SDS011;32278;51.810;4.712;2023-05-10T04:03:37;80.50;;;29.23;;
46551;SDS011;32278;51.810;4.712;2023-05-10T04:06:04;102.65;;;33.63;;
46551;SDS011;32278;51.810;4.712;2023-05-10T04:08:30;94.93;;;33.80;;
46551;SDS011;32278;51.810;4.712;2023-05-10T04:11:09;83.15;;;31.15;;
46551;SDS011;32278;51.810;4.712;2023-05-10T04:13:36;92.38;;;32.83;;
46551;SDS011;32278;51.810;4.712;2023-05-10T04:16:02;84.30;;;32.35;;
46551;SDS011;32278;51.810;4.712;2023-05-10T04:18:28;82.45;;;32.92;;
46551;SDS011;32278;51.810;4.712;2023-05-10T04:20:54;86.85;;;34.92;;
46551;SDS011;32278;51.810;4.712;2023-05-10T04:23:20;93.80;;;34.15;;
46551;SDS011;32278;51.810;4.712;2023-05-10T04:25:46;93.53;;;36.90;;
46551;SDS011;32278;51.810;4.712;2023-05-10T04:28:12;97.45;;;36.22;;
46551;SDS011;32278;51.810;4.712;2023-05-10T04:30:38;97.97;;;37.28;;
46551;SDS011;32278;51.810;4.712;2023-05-10T04:33:05;107.35;;;37.90;;
46551;SDS011;32278;51.810;4.712;2023-05-10T04:35:31;73.65;;;33.45;;
46551;SDS011;32278;51.810;4.712;2023-05-10T04:37:57;86.78;;;33.28;;
46551;SDS011;32278;51.810;4.712;2023-05-10T04:40:23;77.85;;;33.05;;
46551;SDS011;32278;51.810;4.712;2023-05-10T04:42:49;76.72;;;33.38;;
46551;SDS011;32278;51.810;4.712;2023-05-10T04:45:15;79.18;;;30.92;;
46551;SDS011;32278;51.810;4.712;2023-05-10T04:47:41;77.75;;;32.15;;
46551;SDS011;32278;51.810;4.712;2023-05-10T04:50:07;76.75;;;34.08;;
46551;SDS011;32278;51.810;4.712;2023-05-10T04:52:33;92.32;;;36.80;;
46551;SDS011;32278;51.810;4.712;2023-05-10T04:54:59;95.82;;;38.97;;
46551;SDS011;32278;51.810;4.712;2023-05-10T04:57:25;96.15;;;37.95;;
46551;SDS011;32278;51.810;4.712;2023-05-10T04:59:51;93.57;;;37.60;;
46551;SDS011;32278;51.810;4.712;2023-05-10T05:02:17;113.72;;;39.55;;
46551;SDS011;32278;51.810;4.712;2023-05-10T05:04:43;124.65;;;40.17;;
46551;SDS011;32278;51.810;4.712;2023-05-10T05:07:09;140.75;;;41.88;;
46551;SDS011;32278;51.810;4.712;2023-05-10T05:09:35;142.98;;;41.95;;
46551;SDS011;32278;51.810;4.712;2023-05-10T05:12:01;154.07;;;42.90;;
46551;SDS011;32278;51.810;4.712;2023-05-10T05:14:27;148.73;;;42.72;;
46551;SDS011;32278;51.810;4.712;2023-05-10T05:16:53;142.13;;;40.22;;
46551;SDS011;32278;51.810;4.712;2023-05-10T05:19:19;145.68;;;40.70;;
46551;SDS011;32278;51.810;4.712;2023-05-10T05:21:45;128.30;;;40.00;;
46551;SDS011;32278;51.810;4.712;2023-05-10T05:24:11;127.30;;;38.50;;
46551;SDS011;32278;51.810;4.712;2023-05-10T05:26:38;127.93;;;35.55;;
46551;SDS011;32278;51.810;4.712;2023-05-10T05:29:04;105.93;;;35.13;;
46551;SDS011;32278;51.810;4.712;2023-05-10T05:31:30;95.57;;;32.85;;
46551;SDS011;32278;51.810;4.712;2023-05-10T05:33:57;119.97;;;37.60;;
46551;SDS011;32278;51.810;4.712;2023-05-10T05:36:23;111.68;;;35.33;;
46551;SDS011;32278;51.810;4.712;2023-05-10T05:38:49;102.90;;;35.70;;
46551;SDS011;32278;51.810;4.712;2023-05-10T05:41:15;78.55;;;32.90;;
46551;SDS011;32278;51.810;4.712;2023-05-10T05:43:41;86.50;;;34.17;;
46551;SDS011;32278;51.810;4.712;2023-05-10T05:46:07;112.90;;;38.15;;
46551;SDS011;32278;51.810;4.712;2023-05-10T05:48:33;85.43;;;33.35;;
46551;SDS011;32278;51.810;4.712;2023-05-10T05:51:00;90.07;;;34.35;;
46551;SDS011;32278;51.810;4.712;2023-05-10T05:53:26;89.72;;;34.05;;
46551;SDS011;32278;51.810;4.712;2023-05-10T05:55:53;87.65;;;32.90;;
46551;SDS011;32278;51.810;4.712;2023-05-10T05:58:19;93.90;;;37.42;;
46551;SDS011;32278;51.810;4.712;2023-05-10T06:00:45;98.13;;;35.50;;
46551;SDS011;32278;51.810;4.712;2023-05-10T06:03:11;104.07;;;37.70;;
46551;SDS011;32278;51.810;4.712;2023-05-10T06:05:37;77.00;;;31.67;;
46551;SDS011;32278;51.810;4.712;2023-05-10T06:08:03;75.78;;;31.83;;
46551;SDS011;32278;51.810;4.712;2023-05-10T06:10:29;76.25;;;31.35;;
46551;SDS011;32278;51.810;4.712;2023-05-10T06:12:55;82.20;;;34.30;;
46551;SDS011;32278;51.810;4.712;2023-05-10T06:15:21;78.57;;;31.80;;
46551;SDS011;32278;51.810;4.712;2023-05-10T06:17:47;87.72;;;32.83;;
46551;SDS011;32278;51.810;4.712;2023-05-10T06:20:14;87.78;;;33.17;;
46551;SDS011;32278;51.810;4.712;2023-05-10T06:22:40;82.35;;;34.42;;
46551;SDS011;32278;51.810;4.712;2023-05-10T06:25:07;84.75;;;34.38;;
46551;SDS011;32278;51.810;4.712;2023-05-10T06:27:33;86.75;;;36.33;;
46551;SDS011;32278;51.810;4.712;2023-05-10T06:29:59;82.40;;;33.90;;
46551;SDS011;32278;51.810;4.712;2023-05-10T06:32:25;79.28;;;33.38;;
46551;SDS011;32278;51.810;4.712;2023-05-10T06:34:51;87.78;;;32.95;;
46551;SDS011;32278;51.810;4.712;2023-05-10T06:37:17;71.88;;;30.15;;
46551;SDS011;32278;51.810;4.712;2023-05-10T06:39:43;70.88;;;29.23;;
46551;SDS011;32278;51.810;4.712;2023-05-10T06:42:09;71.97;;;33.10;;
46551;SDS011;32278;51.810;4.712;2023-05-10T06:44:35;63.15;;;28.60;;
46551;SDS011;32278;51.810;4.712;2023-05-10T06:47:01;58.90;;;27.20;;
46551;SDS011;32278;51.810;4.712;2023-05-10T06:49:27;57.35;;;24.67;;
46551;SDS011;32278;51.810;4.712;2023-05-10T06:51:53;50.42;;;24.15;;
46551;SDS011;32278;51.810;4.712;2023-05-10T06:54:20;54.20;;;23.27;;
46551;SDS011;32278;51.810;4.712;2023-05-10T06:56:46;43.63;;;20.08;;
46551;SDS011;32278;51.810;4.712;2023-05-10T06:59:12;36.03;;;17.98;;
46551;SDS011;32278;51.810;4.712;2023-05-10T07:01:39;40.80;;;18.83;;
46551;SDS011;32278;51.810;4.712;2023-05-10T07:04:05;39.28;;;18.17;;
46551;SDS011;32278;51.810;4.712;2023-05-10T07:06:32;33.28;;;17.48;;
46551;SDS011;32278;51.810;4.712;2023-05-10T07:08:58;34.72;;;16.90;;
46551;SDS011;32278;51.810;4.712;2023-05-10T07:11:24;37.67;;;18.23;;
46551;SDS011;32278;51.810;4.712;2023-05-10T07:13:51;36.55;;;16.88;;
46551;SDS011;32278;51.810;4.712;2023-05-10T07:16:17;31.48;;;13.18;;
46551;SDS011;32278;51.810;4.712;2023-05-10T07:18:43;32.42;;;14.13;;
46551;SDS011;32278;51.810;4.712;2023-05-10T07:21:09;28.80;;;13.55;;
46551;SDS011;32278;51.810;4.712;2023-05-10T07:23:35;22.15;;;11.98;;
46551;SDS011;32278;51.810;4.712;2023-05-10T07:26:01;21.63;;;11.20;;
46551;SDS011;32278;51.810;4.712;2023-05-10T07:28:27;25.48;;;11.52;;
46551;SDS011;32278;51.810;4.712;2023-05-10T07:30:53;32.80;;;12.82;;
46551;SDS011;32278;51.810;4.712;2023-05-10T07:33:19;26.88;;;13.15;;
46551;SDS011;32278;51.810;4.712;2023-05-10T07:35:45;29.08;;;15.88;;
46551;SDS011;32278;51.810;4.712;2023-05-10T07:38:12;31.52;;;16.80;;
46551;SDS011;32278;51.810;4.712;2023-05-10T07:40:38;42.28;;;17.35;;
46551;SDS011;32278;51.810;4.712;2023-05-10T07:43:04;27.75;;;17.13;;
46551;SDS011;32278;51.810;4.712;2023-05-10T07:45:30;30.77;;;14.73;;
46551;SDS011;32278;51.810;4.712;2023-05-10T07:47:57;26.55;;;14.60;;
46551;SDS011;32278;51.810;4.712;2023-05-10T07:50:23;23.50;;;13.38;;
46551;SDS011;32278;51.810;4.712;2023-05-10T07:52:49;24.20;;;13.00;;
46551;SDS011;32278;51.810;4.712;2023-05-10T07:55:15;30.83;;;13.48;;
46551;SDS011;32278;51.810;4.712;2023-05-10T07:57:41;26.65;;;13.63;;
46551;SDS011;32278;51.810;4.712;2023-05-10T08:00:08;27.60;;;13.98;;
46551;SDS011;32278;51.810;4.712;2023-05-10T08:02:35;26.42;;;14.27;;
46551;SDS011;32278;51.810;4.712;2023-05-10T08:05:01;26.48;;;14.18;;
46551;SDS011;32278;51.810;4.712;2023-05-10T08:07:27;28.58;;;15.38;;
46551;SDS011;32278;51.810;4.712;2023-05-10T08:09:53;31.10;;;15.45;;
46551;SDS011;32278;51.810;4.712;2023-05-10T08:12:19;24.20;;;14.60;;
46551;SDS011;32278;51.810;4.712;2023-05-10T08:14:45;24.23;;;15.05;;
46551;SDS011;32278;51.810;4.712;2023-05-10T08:17:11;27.52;;;15.63;;
46551;SDS011;32278;51.810;4.712;2023-05-10T08:19:37;20.80;;;13.57;;
46551;SDS011;32278;51.810;4.712;2023-05-10T08:22:03;24.67;;;13.18;;
46551;SDS011;32278;51.810;4.712;2023-05-10T08:24:29;19.80;;;11.82;;
46551;SDS011;32278;51.810;4.712;2023-05-10T08:26:55;15.80;;;10.48;;
46551;SDS011;32278;51.810;4.712;2023-05-10T08:29:21;15.90;;;9.63;;
46551;SDS011;32278;51.810;4.712;2023-05-10T08:31:47;11.65;;;8.57;;
46551;SDS011;32278;51.810;4.712;2023-05-10T08:34:13;14.95;;;8.45;;
46551;SDS011;32278;51.810;4.712;2023-05-10T08:36:38;14.65;;;8.27;;
46551;SDS011;32278;51.810;4.712;2023-05-10T08:39:04;15.45;;;8.30;;
46551;SDS011;32278;51.810;4.712;2023-05-10T08:41:31;18.95;;;9.60;;
46551;SDS011;32278;51.810;4.712;2023-05-10T08:43:58;17.65;;;9.40;;
46551;SDS011;32278;51.810;4.712;2023-05-10T08:46:26;21.55;;;10.18;;
46551;SDS011;32278;51.810;4.712;2023-05-10T08:48:53;15.80;;;10.23;;
46551;SDS011;32278;51.810;4.712;2023-05-10T08:51:21;17.77;;;9.70;;
46551;SDS011;32278;51.810;4.712;2023-05-10T08:53:48;16.38;;;10.48;;
46551;SDS011;32278;51.810;4.712;2023-05-10T08:56:15;17.23;;;11.10;;
46551;SDS011;32278;51.810;4.712;2023-05-10T08:58:42;15.18;;;10.75;;
46551;SDS011;32278;51.810;4.712;2023-05-10T09:01:08;18.70;;;10.65;;
46551;SDS011;32278;51.810;4.712;2023-05-10T09:03:35;22.98;;;10.70;;
46551;SDS011;32278;51.810;4.712;2023-05-10T09:06:03;16.23;;;10.25;;
46551;SDS011;32278;51.810;4.712;2023-05-10T09:08:30;16.50;;;8.82;;
46551;SDS011;32278;51.810;4.712;2023-05-10T09:10:56;13.45;;;8.50;;
46551;SDS011;32278;51.810;4.712;2023-05-10T09:13:22;12.85;;;8.13;;
46551;SDS011;32278;51.810;4.712;2023-05-10T09:15:49;9.98;;;6.78;;
46551;SDS011;32278;51.810;4.712;2023-05-10T09:18:15;12.70;;;6.55;;
46551;SDS011;32278;51.810;4.712;2023-05-10T09:20:41;13.27;;;7.85;;
46551;SDS011;32278;51.810;4.712;2023-05-10T09:23:07;18.05;;;8.27;;
46551;SDS011;32278;51.810;4.712;2023-05-10T09:25:33;11.10;;;6.25;;
46551;SDS011;32278;51.810;4.712;2023-05-10T09:27:59;11.88;;;7.05;;
46551;SDS011;32278;51.810;4.712;2023-05-10T09:32:51;16.08;;;7.47;;
46551;SDS011;32278;51.810;4.712;2023-05-10T09:35:19;11.32;;;7.53;;
46551;SDS011;32278;51.810;4.712;2023-05-10T09:37:46;10.23;;;7.30;;
46551;SDS011;32278;51.810;4.712;2023-05-10T09:40:19;16.25;;;6.53;;
46551;SDS011;32278;51.810;4.712;2023-05-10T09:45:18;11.85;;;6.63;;
46551;SDS011;32278;51.810;4.712;2023-05-10T09:47:45;11.80;;;6.22;;
46551;SDS011;32278;51.810;4.712;2023-05-10T09:50:11;9.98;;;6.55;;
46551;SDS011;32278;51.810;4.712;2023-05-10T09:52:47;7.78;;;6.53;;
46551;SDS011;32278;51.810;4.712;2023-05-10T09:55:13;9.35;;;5.95;;
46551;SDS011;32278;51.810;4.712;2023-05-10T09:57:39;8.13;;;5.47;;
46551;SDS011;32278;51.810;4.712;2023-05-10T10:00:06;11.55;;;6.03;;
46551;SDS011;32278;51.810;4.712;2023-05-10T10:02:32;8.07;;;5.05;;
46551;SDS011;32278;51.810;4.712;2023-05-10T10:05:00;6.47;;;5.03;;
46551;SDS011;32278;51.810;4.712;2023-05-10T10:07:27;8.43;;;5.65;;
46551;SDS011;32278;51.810;4.712;2023-05-10T10:09:54;8.13;;;5.72;;
46551;SDS011;32278;51.810;4.712;2023-05-10T10:12:20;9.25;;;5.90;;
46551;SDS011;32278;51.810;4.712;2023-05-10T10:14:46;9.25;;;5.25;;
46551;SDS011;32278;51.810;4.712;2023-05-10T10:17:14;11.05;;;5.35;;
46551;SDS011;32278;51.810;4.712;2023-05-10T10:19:40;11.73;;;5.63;;
46551;SDS011;32278;51.810;4.712;2023-05-10T10:22:07;12.18;;;5.63;;
46551;SDS011;32278;51.810;4.712;2023-05-10T10:24:33;12.98;;;5.40;;
46551;SDS011;32278;51.810;4.712;2023-05-10T10:27:03;9.93;;;5.30;;
46551;SDS011;32278;51.810;4.712;2023-05-10T10:29:35;9.57;;;5.63;;
46551;SDS011;32278;51.810;4.712;2023-05-10T10:32:12;8.75;;;5.22;;
46551;SDS011;32278;51.810;4.712;2023-05-10T10:34:44;7.18;;;4.53;;
46551;SDS011;32278;51.810;4.712;2023-05-10T10:37:11;7.53;;;4.30;;
46551;SDS011;32278;51.810;4.712;2023-05-10T10:39:37;8.98;;;4.85;;
46551;SDS011;32278;51.810;4.712;2023-05-10T10:42:03;9.00;;;4.65;;
46551;SDS011;32278;51.810;4.712;2023-05-10T10:47:06;9.23;;;3.95;;
46551;SDS011;32278;51.810;4.712;2023-05-10T10:57:20;5.68;;;3.50;;
46551;SDS011;32278;51.810;4.712;2023-05-10T10:59:46;5.28;;;3.67;;
46551;SDS011;32278;51.810;4.712;2023-05-10T11:04:57;7.28;;;4.47;;
46551;SDS011;32278;51.810;4.712;2023-05-10T11:07:24;9.10;;;5.95;;
46551;SDS011;32278;51.810;4.712;2023-05-10T11:09:51;13.20;;;6.45;;
46551;SDS011;32278;51.810;4.712;2023-05-10T11:12:17;13.55;;;7.55;;
46551;SDS011;32278;51.810;4.712;2023-05-10T11:14:43;12.82;;;7.95;;
46551;SDS011;32278;51.810;4.712;2023-05-10T11:17:27;11.20;;;7.82;;
46551;SDS011;32278;51.810;4.712;2023-05-10T11:20:09;17.58;;;10.45;;
46551;SDS011;32278;51.810;4.712;2023-05-10T11:22:53;14.23;;;10.03;;
46551;SDS011;32278;51.810;4.712;2023-05-10T11:25:23;16.33;;;9.60;;
46551;SDS011;32278;51.810;4.712;2023-05-10T11:27:51;13.63;;;9.17;;
46551;SDS011;32278;51.810;4.712;2023-05-10T11:30:17;16.15;;;9.45;;
46551;SDS011;32278;51.810;4.712;2023-05-10T11:32:43;13.35;;;8.75;;
46551;SDS011;32278;51.810;4.712;2023-05-10T11:35:10;15.77;;;9.10;;
46551;SDS011;32278;51.810;4.712;2023-05-10T11:37:38;12.93;;;8.02;;
46551;SDS011;32278;51.810;4.712;2023-05-10T11:40:08;15.32;;;8.27;;
46551;SDS011;32278;51.810;4.712;2023-05-10T11:42:36;14.82;;;8.63;;
46551;SDS011;32278;51.810;4.712;2023-05-10T11:45:03;13.73;;;8.13;;
46551;SDS011;32278;51.810;4.712;2023-05-10T11:47:29;15.05;;;8.70;;
46551;SDS011;32278;51.810;4.712;2023-05-10T11:49:55;10.65;;;7.50;;
46551;SDS011;32278;51.810;4.712;2023-05-10T11:52:21;13.60;;;6.35;;
46551;SDS011;32278;51.810;4.712;2023-05-10T11:54:53;15.23;;;7.07;;
46551;SDS011;32278;51.810;4.712;2023-05-10T11:57:20;12.57;;;6.45;;
46551;SDS011;32278;51.810;4.712;2023-05-10T11:59:46;10.35;;;6.63;;
46551;SDS011;32278;51.810;4.712;2023-05-10T12:02:15;10.23;;;5.95;;
46551;SDS011;32278;51.810;4.712;2023-05-10T12:04:41;8.75;;;5.63;;
46551;SDS011;32278;51.810;4.712;2023-05-10T12:07:07;12.50;;;6.18;;
46551;SDS011;32278;51.810;4.712;2023-05-10T12:09:33;11.38;;;5.45;;
46551;SDS011;32278;51.810;4.712;2023-05-10T12:11:59;17.52;;;7.03;;
46551;SDS011;32278;51.810;4.712;2023-05-10T12:14:25;11.93;;;5.75;;
46551;SDS011;32278;51.810;4.712;2023-05-10T12:16:51;7.95;;;5.60;;
46551;SDS011;32278;51.810;4.712;2023-05-10T12:19:18;12.13;;;6.10;;
46551;SDS011;32278;51.810;4.712;2023-05-10T12:21:47;6.47;;;4.72;;
46551;SDS011;32278;51.810;4.712;2023-05-10T12:24:13;8.65;;;5.18;;
46551;SDS011;32278;51.810;4.712;2023-05-10T12:26:42;8.27;;;4.32;;
46551;SDS011;32278;51.810;4.712;2023-05-10T12:29:12;9.27;;;4.22;;
46551;SDS011;32278;51.810;4.712;2023-05-10T12:31:55;6.72;;;3.83;;
46551;SDS011;32278;51.810;4.712;2023-05-10T12:34:30;5.38;;;3.28;;
46551;SDS011;32278;51.810;4.712;2023-05-10T12:36:56;3.35;;;2.45;;
46551;SDS011;32278;51.810;4.712;2023-05-10T12:39:22;11.48;;;3.30;;
46551;SDS011;32278;51.810;4.712;2023-05-10T12:41:48;5.07;;;3.60;;
46551;SDS011;32278;51.810;4.712;2023-05-10T12:44:14;7.93;;;3.83;;
46551;SDS011;32278;51.810;4.712;2023-05-10T12:46:40;9.50;;;3.42;;
46551;SDS011;32278;51.810;4.712;2023-05-10T12:49:06;7.70;;;3.30;;
46551;SDS011;32278;51.810;4.712;2023-05-10T12:51:32;6.72;;;3.00;;
46551;SDS011;32278;51.810;4.712;2023-05-10T12:53:58;5.43;;;2.95;;
46551;SDS011;32278;51.810;4.712;2023-05-10T12:56:24;6.57;;;2.60;;
46551;SDS011;32278;51.810;4.712;2023-05-10T12:58:50;4.10;;;2.28;;
46551;SDS011;32278;51.810;4.712;2023-05-10T13:01:16;4.47;;;2.58;;
46551;SDS011;32278;51.810;4.712;2023-05-10T13:03:42;9.55;;;2.90;;
46551;SDS011;32278;51.810;4.712;2023-05-10T13:06:08;4.32;;;2.70;;
46551;SDS011;32278;51.810;4.712;2023-05-10T13:08:34;9.57;;;2.55;;
46551;SDS011;32278;51.810;4.712;2023-05-10T13:11:01;3.70;;;2.20;;
46551;SDS011;32278;51.810;4.712;2023-05-10T13:13:27;6.75;;;2.97;;
46551;SDS011;32278;51.810;4.712;2023-05-10T13:15:53;5.47;;;2.53;;
46551;SDS011;32278;51.810;4.712;2023-05-10T13:18:19;6.07;;;2.50;;
46551;SDS011;32278;51.810;4.712;2023-05-10T13:20:45;8.43;;;2.47;;
46551;SDS011;32278;51.810;4.712;2023-05-10T13:23:11;4.97;;;2.53;;
46551;SDS011;32278;51.810;4.712;2023-05-10T13:25:37;6.40;;;2.17;;
46551;SDS011;32278;51.810;4.712;2023-05-10T13:28:03;1.90;;;1.30;;
46551;SDS011;32278;51.810;4.712;2023-05-10T13:30:29;5.40;;;2.10;;
46551;SDS011;32278;51.810;4.712;2023-05-10T13:32:55;2.95;;;1.83;;
46551;SDS011;32278;51.810;4.712;2023-05-10T13:35:21;2.38;;;1.80;;
46551;SDS011;32278;51.810;4.712;2023-05-10T13:37:47;1.90;;;1.48;;
46551;SDS011;32278;51.810;4.712;2023-05-10T13:40:13;4.25;;;1.80;;
46551;SDS011;32278;51.810;4.712;2023-05-10T13:42:40;3.53;;;1.80;;
46551;SDS011;32278;51.810;4.712;2023-05-10T13:45:06;2.15;;;1.63;;
46551;SDS011;32278;51.810;4.712;2023-05-10T13:47:32;3.65;;;1.30;;
46551;SDS011;32278;51.810;4.712;2023-05-10T13:49:58;4.03;;;2.10;;
46551;SDS011;32278;51.810;4.712;2023-05-10T13:52:24;4.55;;;2.40;;
46551;SDS011;32278;51.810;4.712;2023-05-10T13:54:50;6.90;;;2.92;;
46551;SDS011;32278;51.810;4.712;2023-05-10T13:57:17;3.28;;;2.72;;
46551;SDS011;32278;51.810;4.712;2023-05-10T13:59:43;4.30;;;2.60;;
46551;SDS011;32278;51.810;4.712;2023-05-10T14:02:09;5.85;;;2.33;;
46551;SDS011;32278;51.810;4.712;2023-05-10T14:04:37;8.60;;;3.35;;
46551;SDS011;32278;51.810;4.712;2023-05-10T14:07:03;5.43;;;3.35;;
46551;SDS011;32278;51.810;4.712;2023-05-10T14:09:29;6.55;;;3.50;;
46551;SDS011;32278;51.810;4.712;2023-05-10T14:11:55;7.65;;;3.83;;
46551;SDS011;32278;51.810;4.712;2023-05-10T14:14:21;5.57;;;3.33;;
46551;SDS011;32278;51.810;4.712;2023-05-10T14:16:47;5.38;;;3.42;;
46551;SDS011;32278;51.810;4.712;2023-05-10T14:19:13;5.57;;;3.22;;
46551;SDS011;32278;51.810;4.712;2023-05-10T14:21:39;7.53;;;3.72;;
46551;SDS011;32278;51.810;4.712;2023-05-10T14:24:05;6.43;;;2.80;;
46551;SDS011;32278;51.810;4.712;2023-05-10T14:26:32;3.35;;;2.47;;
46551;SDS011;32278;51.810;4.712;2023-05-10T14:28:59;7.22;;;2.72;;
46551;SDS011;32278;51.810;4.712;2023-05-10T14:31:25;4.75;;;2.13;;
46551;SDS011;32278;51.810;4.712;2023-05-10T14:33:51;3.63;;;2.30;;
46551;SDS011;32278;51.810;4.712;2023-05-10T14:36:17;4.32;;;2.63;;
46551;SDS011;32278;51.810;4.712;2023-05-10T14:38:43;5.43;;;2.00;;
46551;SDS011;32278;51.810;4.712;2023-05-10T14:41:09;5.38;;;2.20;;
46551;SDS011;32278;51.810;4.712;2023-05-10T14:43:39;3.85;;;2.35;;
46551;SDS011;32278;51.810;4.712;2023-05-10T14:46:05;4.80;;;2.67;;
46551;SDS011;32278;51.810;4.712;2023-05-10T14:48:31;7.40;;;2.95;;
46551;SDS011;32278;51.810;4.712;2023-05-10T14:50:57;4.72;;;2.38;;
46551;SDS011;32278;51.810;4.712;2023-05-10T14:53:23;4.80;;;2.40;;
46551;SDS011;32278;51.810;4.712;2023-05-10T14:55:49;6.68;;;2.60;;